createdAt,value
2019-05-25T00:02:07.546Z,99249.75
2019-05-25T00:04:36.425Z,99243.35
2019-05-25T00:07:05.384Z,99243.42
2019-05-25T00:09:34.351Z,99247.37
2019-05-25T00:12:03.187Z,99246.09
2019-05-25T00:14:32.265Z,99244.05
2019-05-25T00:17:01.147Z,99235.28
2019-05-25T00:19:30.106Z,99238.19
2019-05-25T00:21:58.952Z,99239.59
2019-05-25T00:24:27.823Z,99235.94
2019-05-25T00:26:56.745Z,99233.49
2019-05-25T00:29:25.668Z,99234.73
2019-05-25T00:31:54.548Z,99225.23
2019-05-25T00:34:23.425Z,99231.59
2019-05-25T00:36:52.349Z,99235.63
2019-05-25T00:39:21.266Z,99226.75
2019-05-25T00:41:50.226Z,99226.98
2019-05-25T00:44:19.126Z,99221.91
2019-05-25T00:46:47.944Z,99224.04
2019-05-25T00:49:16.825Z,99216.44
2019-05-25T00:51:45.641Z,99212.88
2019-05-25T00:54:27.152Z,99216.52
2019-05-25T00:56:45.068Z,99207.59
2019-05-25T00:59:13.905Z,99212.41
2019-05-25T01:01:42.794Z,99212.95
2019-05-25T01:04:11.787Z,99207.17
2019-05-25T01:06:40.625Z,99210.55
2019-05-25T01:09:09.665Z,99207.13
2019-05-25T01:11:38.533Z,99210.65
2019-05-25T01:14:07.425Z,99212.89
2019-05-25T01:16:36.346Z,99215.56
2019-05-25T01:19:05.385Z,99222.32
2019-05-25T01:21:34.305Z,99212.98
2019-05-25T01:24:03.151Z,99210.42
2019-05-25T01:26:32.230Z,99216.82
2019-05-25T01:29:01.196Z,99214.78
2019-05-25T01:31:30.148Z,99218.07
2019-05-25T01:33:59.068Z,99216.29
2019-05-25T01:36:27.985Z,99208.23
2019-05-25T01:38:57.027Z,99210.48
2019-05-25T01:41:25.945Z,99209.81
2019-05-25T01:43:54.786Z,99208.56
2019-05-25T01:46:23.587Z,99207.38
2019-05-25T01:48:52.465Z,99203.51
2019-05-25T01:51:21.345Z,99214.54
2019-05-25T01:53:50.225Z,99214.64
2019-05-25T01:56:19.145Z,99215.50
2019-05-25T01:58:47.985Z,99208.17
2019-05-25T02:01:16.865Z,99204.75
2019-05-25T02:03:45.705Z,99205.11
2019-05-25T02:06:14.545Z,99197.92
2019-05-25T02:08:43.531Z,99205.39
2019-05-25T02:11:12.425Z,99208.52
2019-05-25T02:13:41.305Z,99209.48
2019-05-25T02:16:10.266Z,99209.95
2019-05-25T02:18:39.076Z,99206.17
2019-05-25T02:21:09.346Z,99208.70
2019-05-25T02:23:38.229Z,99212.69
2019-05-25T02:26:07.146Z,99207.77
2019-05-25T02:28:36.070Z,99214.82
2019-05-25T02:31:05.070Z,99204.64
2019-05-25T02:33:33.987Z,99202.02
2019-05-25T02:36:02.866Z,99206.07
2019-05-25T02:38:31.746Z,99206.75
2019-05-25T02:41:01.025Z,99210.88
2019-05-25T02:43:29.948Z,99214.82
2019-05-25T02:45:58.870Z,99213.16
2019-05-25T02:48:27.746Z,99217.56
2019-05-25T02:50:56.707Z,99221.76
2019-05-25T02:53:25.545Z,99224.89
2019-05-25T02:55:54.466Z,99225.11
2019-05-25T02:58:23.386Z,99224.48
2019-05-25T03:00:52.306Z,99228.34
2019-05-25T03:03:21.268Z,99224.77
2019-05-25T03:05:50.305Z,99226.95
2019-05-25T03:08:19.306Z,99231.28
2019-05-25T03:10:49.665Z,99232.73
2019-05-25T03:13:19.386Z,99233.77
2019-05-25T03:15:48.320Z,99230.22
2019-05-25T03:18:17.266Z,99236.06
2019-05-25T03:20:46.224Z,99224.86
2019-05-25T03:23:15.145Z,99234.57
2019-05-25T03:25:49.596Z,99227.92
2019-05-25T03:28:14.708Z,99233.35
2019-05-25T03:30:43.627Z,99231.53
2019-05-25T03:33:12.506Z,99233.06
2019-05-25T03:35:41.389Z,99236.03
2019-05-25T03:38:10.349Z,99233.22
2019-05-25T03:40:39.209Z,99233.22
2019-05-25T03:43:08.065Z,99233.58
2019-05-25T03:45:36.946Z,99227.41
2019-05-25T03:48:06.037Z,99235.56
2019-05-25T03:50:34.989Z,99242.30
2019-05-25T03:53:03.872Z,99241.91
2019-05-25T03:55:32.876Z,99238.77
2019-05-25T03:58:01.826Z,99236.28
2019-05-25T04:00:38.186Z,99235.28
2019-05-25T04:03:07.626Z,99244.59
2019-05-25T04:05:36.435Z,99243.14
2019-05-25T04:08:05.546Z,99235.98
2019-05-25T04:10:34.508Z,99240.97
2019-05-25T04:13:03.467Z,99241.78
2019-05-25T04:15:32.346Z,99239.87
2019-05-25T04:18:01.226Z,99242.23
2019-05-25T04:20:30.106Z,99241.69
2019-05-25T04:22:58.947Z,99238.41
2019-05-25T04:25:27.985Z,99240.25
2019-05-25T04:27:56.905Z,99242.72
2019-05-25T04:30:26.026Z,99247.20
2019-05-25T04:32:54.948Z,99246.08
2019-05-25T04:35:23.906Z,99249.95
2019-05-25T04:37:52.788Z,99251.52
2019-05-25T04:40:23.088Z,99255.98
2019-05-25T04:42:52.307Z,99259.34
2019-05-25T04:45:21.294Z,99263.23
2019-05-25T04:47:50.345Z,99256.23
2019-05-25T04:50:19.346Z,99259.52
2019-05-25T04:52:48.190Z,99262.60
2019-05-25T04:55:17.268Z,99266.63
2019-05-25T04:57:46.305Z,99265.10
2019-05-25T05:00:16.624Z,99263.19
2019-05-25T05:02:45.546Z,99267.69
2019-05-25T05:05:14.665Z,99271.11
2019-05-25T05:07:43.546Z,99271.75
2019-05-25T05:10:12.665Z,99276.10
2019-05-25T05:12:41.505Z,99276.65
2019-05-25T05:15:11.116Z,99272.27
2019-05-25T05:17:40.143Z,99275.20
2019-05-25T05:20:09.988Z,99265.63
2019-05-25T05:22:38.947Z,99264.21
2019-05-25T05:25:08.579Z,99266.08
2019-05-25T05:27:38.188Z,99260.11
2019-05-25T05:30:09.344Z,99263.04
2019-05-25T05:32:38.258Z,99269.32
2019-05-25T05:35:08.271Z,99272.17
2019-05-25T05:37:37.906Z,99264.47
2019-05-25T05:40:10.344Z,99271.09
2019-05-25T05:42:40.024Z,99266.39
2019-05-25T05:45:09.589Z,99263.79
2019-05-25T05:47:39.626Z,99266.66
2019-05-25T05:50:10.345Z,99264.70
2019-05-25T05:52:39.954Z,99259.20
2019-05-25T05:55:11.238Z,99265.11
2019-05-25T05:57:40.106Z,99261.69
2019-05-25T06:00:11.064Z,99266.12
2019-05-25T06:02:39.989Z,99265.94
2019-05-25T06:05:09.705Z,99267.14
2019-05-25T06:07:38.624Z,99267.11
2019-05-25T06:10:08.706Z,99263.41
2019-05-25T06:12:37.585Z,99270.09
2019-05-25T06:15:07.432Z,99278.73
2019-05-25T06:17:36.433Z,99272.92
2019-05-25T06:20:07.308Z,99272.70
2019-05-25T06:22:36.435Z,99275.20
2019-05-25T06:25:07.347Z,99279.08
2019-05-25T06:27:36.225Z,99273.92
2019-05-25T06:30:06.908Z,99280.34
2019-05-25T06:32:35.706Z,99279.11
2019-05-25T06:35:06.466Z,99283.84
2019-05-25T06:37:35.306Z,99287.40
2019-05-25T06:40:05.904Z,99282.58
2019-05-25T06:42:34.758Z,99280.84
2019-05-25T06:45:05.306Z,99278.21
2019-05-25T06:47:34.143Z,99284.64
2019-05-25T06:50:03.304Z,99281.97
2019-05-25T06:52:32.107Z,99276.97
2019-05-25T06:55:00.945Z,99282.56
2019-05-25T06:57:42.100Z,99274.14
2019-05-25T07:00:00.467Z,99272.95
2019-05-25T07:02:29.344Z,99275.95
2019-05-25T07:04:58.147Z,99286.44
2019-05-25T07:07:27.024Z,99282.21
2019-05-25T07:09:55.865Z,99280.95
2019-05-25T07:12:24.701Z,99284.37
2019-05-25T07:14:53.504Z,99292.89
2019-05-25T07:17:22.388Z,99292.48
2019-05-25T07:19:51.303Z,99289.20
2019-05-25T07:22:20.104Z,99287.89
2019-05-25T07:24:49.344Z,99292.02
2019-05-25T07:27:18.193Z,99294.45
2019-05-25T07:29:47.104Z,99293.83
2019-05-25T07:32:15.984Z,99299.87
2019-05-25T07:34:44.865Z,99291.05
2019-05-25T07:37:13.745Z,99294.00
2019-05-25T07:39:42.750Z,99294.44
2019-05-25T07:42:11.626Z,99293.39
2019-05-25T07:44:40.544Z,99292.50
2019-05-25T07:47:09.465Z,99296.91
2019-05-25T07:49:38.308Z,99292.50
2019-05-25T07:52:07.144Z,99290.88
2019-05-25T07:54:35.985Z,99292.50
2019-05-25T07:57:04.983Z,99295.95
2019-05-25T07:59:33.826Z,99292.46
2019-05-25T08:02:02.784Z,99297.81
2019-05-25T08:04:31.624Z,99292.59
2019-05-25T08:07:00.424Z,99289.33
2019-05-25T08:09:29.265Z,99305.95
2019-05-25T08:11:58.059Z,99303.19
2019-05-25T08:14:26.957Z,99305.45
2019-05-25T08:16:55.863Z,99310.28
2019-05-25T08:19:24.745Z,99308.72
2019-05-25T08:21:53.626Z,99299.26
2019-05-25T08:24:22.507Z,99306.70
2019-05-25T08:26:51.344Z,99306.28
2019-05-25T08:29:20.264Z,99307.47
2019-05-25T08:31:49.103Z,99301.08
2019-05-25T08:34:17.908Z,99305.87
2019-05-25T08:36:46.787Z,99305.12
2019-05-25T08:39:15.704Z,99310.18
2019-05-25T08:41:45.588Z,99306.65
2019-05-25T08:44:14.643Z,99310.38
2019-05-25T08:46:43.506Z,99312.22
2019-05-25T08:49:12.381Z,99308.59
2019-05-25T08:51:41.706Z,99314.27
2019-05-25T08:54:10.624Z,99313.42
2019-05-25T08:56:39.538Z,99314.54
2019-05-25T08:59:08.385Z,99318.77
2019-05-25T09:01:37.225Z,99315.41
2019-05-25T09:04:06.104Z,99320.48
2019-05-25T09:06:35.824Z,99312.63
2019-05-25T09:09:06.584Z,99313.34
2019-05-25T09:11:35.425Z,99309.25
2019-05-25T09:14:04.327Z,99311.64
2019-05-25T09:16:33.146Z,99306.42
2019-05-25T09:19:02.040Z,99318.56
2019-05-25T09:21:30.995Z,99313.00
2019-05-25T09:23:59.906Z,99318.68
2019-05-25T09:26:28.786Z,99317.09
2019-05-25T09:29:04.552Z,99316.19
2019-05-25T09:31:29.267Z,99318.62
2019-05-25T09:33:58.146Z,99320.55
2019-05-25T09:36:27.066Z,99319.16
2019-05-25T09:38:55.905Z,99319.06
2019-05-25T09:41:24.850Z,99317.24
2019-05-25T09:43:53.785Z,99323.35
2019-05-25T09:46:22.666Z,99325.62
2019-05-25T09:48:51.586Z,99327.53
2019-05-25T09:51:20.507Z,99331.80
2019-05-25T09:53:49.386Z,99328.02
2019-05-25T09:56:18.186Z,99330.45
2019-05-25T09:58:47.106Z,99332.73
2019-05-25T10:01:16.025Z,99335.35
2019-05-25T10:03:44.905Z,99330.31
2019-05-25T10:06:13.946Z,99324.83
2019-05-25T10:08:42.825Z,99321.94
2019-05-25T10:11:11.785Z,99327.28
2019-05-25T10:13:40.626Z,99333.92
2019-05-25T10:16:09.572Z,99327.34
2019-05-25T10:18:38.465Z,99334.03
2019-05-25T10:21:07.424Z,99330.17
2019-05-25T10:23:36.345Z,99330.98
2019-05-25T10:26:07.069Z,99330.17
2019-05-25T10:28:37.634Z,99321.55
2019-05-25T10:31:06.673Z,99316.09
2019-05-25T10:33:35.546Z,99321.52
2019-05-25T10:36:04.769Z,99316.07
2019-05-25T10:38:33.627Z,99312.34
2019-05-25T10:41:02.592Z,99309.38
2019-05-25T10:43:31.464Z,99317.70
2019-05-25T10:46:00.488Z,99315.98
2019-05-25T10:48:29.306Z,99316.11
2019-05-25T10:50:58.145Z,99311.58
2019-05-25T10:53:27.083Z,99312.88
2019-05-25T10:55:55.984Z,99309.59
2019-05-25T10:58:24.828Z,99307.47
2019-05-25T11:00:53.705Z,99307.98
2019-05-25T11:03:22.585Z,99304.23
2019-05-25T11:05:51.508Z,99301.03
2019-05-25T11:08:20.386Z,99302.55
2019-05-25T11:10:49.226Z,99309.03
2019-05-25T11:13:18.106Z,99312.98
2019-05-25T11:15:46.946Z,99299.44
2019-05-25T11:18:15.865Z,99294.91
2019-05-25T11:20:44.786Z,99294.94
2019-05-25T11:23:13.670Z,99287.97
2019-05-25T11:25:42.585Z,99295.48
2019-05-25T11:28:11.507Z,99291.47
2019-05-25T11:30:40.505Z,99294.81
2019-05-25T11:33:09.515Z,99291.74
2019-05-25T11:35:38.422Z,99283.24
2019-05-25T11:38:07.264Z,99289.20
2019-05-25T11:40:36.117Z,99292.20
2019-05-25T11:43:04.985Z,99288.69
2019-05-25T11:45:33.823Z,99297.16
2019-05-25T11:48:02.826Z,99290.66
2019-05-25T11:50:31.705Z,99294.38
2019-05-25T11:53:00.544Z,99293.92
2019-05-25T11:55:29.466Z,99296.41
2019-05-25T11:57:58.271Z,99283.27
2019-05-25T12:00:27.771Z,99289.34
2019-05-25T12:02:56.624Z,99288.82
2019-05-25T12:05:25.429Z,99283.09
2019-05-25T12:07:54.344Z,99287.74
2019-05-25T12:10:23.140Z,99290.71
2019-05-25T12:12:51.987Z,99287.73
2019-05-25T12:15:21.187Z,99295.20
2019-05-25T12:17:50.149Z,99300.34
2019-05-25T12:20:19.064Z,99301.23
2019-05-25T12:22:47.904Z,99303.02
2019-05-25T12:25:16.984Z,99305.89
2019-05-25T12:27:49.040Z,99302.48
2019-05-25T12:30:17.105Z,99305.23
2019-05-25T12:32:45.945Z,99295.67
2019-05-25T12:35:15.064Z,99306.52
2019-05-25T12:37:43.907Z,99298.00
2019-05-25T12:40:14.224Z,99297.23
2019-05-25T12:42:45.822Z,99298.31
2019-05-25T12:45:13.826Z,99294.16
2019-05-25T12:47:42.704Z,99287.92
2019-05-25T12:50:12.025Z,99299.45
2019-05-25T12:52:40.944Z,99293.68
2019-05-25T12:55:09.944Z,99293.59
2019-05-25T12:57:38.828Z,99292.81
2019-05-25T13:00:15.384Z,99296.39
2019-05-25T13:02:38.864Z,99290.38
2019-05-25T13:05:07.824Z,99292.39
2019-05-25T13:07:36.665Z,99289.59
2019-05-25T13:10:08.824Z,99296.31
2019-05-25T13:12:37.709Z,99291.83
2019-05-25T13:15:08.047Z,99297.03
2019-05-25T13:17:36.990Z,99295.17
2019-05-25T13:20:09.025Z,99293.07
2019-05-25T13:22:38.024Z,99289.16
2019-05-25T13:25:08.642Z,99291.48
2019-05-25T13:27:37.584Z,99295.38
2019-05-25T13:30:08.187Z,99292.68
2019-05-25T13:32:37.265Z,99296.06
2019-05-25T13:35:07.386Z,99305.17
2019-05-25T13:37:36.304Z,99306.28
2019-05-25T13:40:06.625Z,99309.14
2019-05-25T13:42:35.586Z,99306.58
2019-05-25T13:45:06.773Z,99307.63
2019-05-25T13:47:35.747Z,99313.14
2019-05-25T13:50:07.861Z,99323.87
2019-05-25T13:52:36.800Z,99314.41
2019-05-25T13:55:06.771Z,99319.69
2019-05-25T13:57:35.708Z,99311.25
2019-05-25T14:00:06.385Z,99315.36
2019-05-25T14:02:35.505Z,99314.51
2019-05-25T14:05:06.112Z,99308.16
2019-05-25T14:07:35.025Z,99314.77
2019-05-25T14:10:05.304Z,99301.88
2019-05-25T14:12:34.305Z,99293.50
2019-05-25T14:15:03.493Z,99294.71
2019-05-25T14:17:32.385Z,99296.70
2019-05-25T14:20:01.277Z,99293.24
2019-05-25T14:22:30.586Z,99297.13
2019-05-25T14:24:59.706Z,99290.14
2019-05-25T14:27:28.623Z,99292.06
2019-05-25T14:29:57.506Z,99298.57
2019-05-25T14:32:26.385Z,99289.38
2019-05-25T14:34:55.202Z,99287.75
2019-05-25T14:37:24.064Z,99289.26
2019-05-25T14:39:52.966Z,99291.66
2019-05-25T14:42:21.947Z,99294.28
2019-05-25T14:44:50.787Z,99297.23
2019-05-25T14:47:19.624Z,99296.92
2019-05-25T14:49:48.504Z,99295.81
2019-05-25T14:52:17.384Z,99296.02
2019-05-25T14:54:46.303Z,99293.05
2019-05-25T14:57:15.107Z,99293.69
2019-05-25T14:59:44.064Z,99288.89
2019-05-25T15:02:12.945Z,99293.36
2019-05-25T15:04:41.865Z,99290.55
2019-05-25T15:07:10.885Z,99289.47
2019-05-25T15:09:39.743Z,99289.55
2019-05-25T15:12:08.624Z,99291.94
2019-05-25T15:14:37.470Z,99288.52
2019-05-25T15:17:06.427Z,99283.23
2019-05-25T15:19:35.464Z,99285.83
2019-05-25T15:22:04.549Z,99280.30
2019-05-25T15:24:33.424Z,99281.30
2019-05-25T15:27:02.424Z,99285.37
2019-05-25T15:29:31.504Z,99281.09
2019-05-25T15:32:00.385Z,99285.27
2019-05-25T15:34:29.265Z,99282.64
2019-05-25T15:36:58.263Z,99281.70
2019-05-25T15:39:27.104Z,99280.84
2019-05-25T15:41:56.105Z,99276.54
2019-05-25T15:44:24.984Z,99276.99
2019-05-25T15:46:53.988Z,99284.36
2019-05-25T15:49:32.458Z,99276.52
2019-05-25T15:51:53.545Z,99279.19
2019-05-25T15:54:22.386Z,99280.34
2019-05-25T15:56:51.187Z,99287.66
2019-05-25T15:59:23.503Z,99287.30
2019-05-25T16:01:50.756Z,99289.03
2019-05-25T16:04:19.668Z,99286.28
2019-05-25T16:06:48.627Z,99288.38
2019-05-25T16:09:17.629Z,99289.71
2019-05-25T16:11:46.545Z,99283.92
2019-05-25T16:14:15.507Z,99280.70
2019-05-25T16:16:44.584Z,99274.98
2019-05-25T16:19:13.463Z,99279.52
2019-05-25T16:21:42.347Z,99279.03
2019-05-25T16:24:11.184Z,99276.88
2019-05-25T16:26:45.901Z,99276.38
2019-05-25T16:29:10.665Z,99271.66
2019-05-25T16:31:39.663Z,99271.59
2019-05-25T16:34:08.545Z,99272.23
2019-05-25T16:36:37.464Z,99267.20
2019-05-25T16:39:08.504Z,99273.41
2019-05-25T16:41:37.384Z,99275.17
2019-05-25T16:44:06.273Z,99277.92
2019-05-25T16:46:35.104Z,99273.47
2019-05-25T16:49:04.028Z,99272.20
2019-05-25T16:51:33.064Z,99274.77
2019-05-25T16:54:02.036Z,99279.80
2019-05-25T16:56:30.945Z,99280.95
2019-05-25T16:58:59.905Z,99282.15
2019-05-25T17:01:46.544Z,99277.20
2019-05-25T17:03:59.665Z,99279.41
2019-05-25T17:06:28.586Z,99280.31
2019-05-25T17:08:57.464Z,99280.03
2019-05-25T17:11:26.383Z,99277.89
2019-05-25T17:13:55.265Z,99279.42
2019-05-25T17:16:24.146Z,99279.06
2019-05-25T17:18:53.067Z,99276.45
2019-05-25T17:21:21.987Z,99281.11
2019-05-25T17:23:50.824Z,99276.55
2019-05-25T17:26:19.705Z,99279.77
2019-05-25T17:28:48.707Z,99271.77
2019-05-25T17:31:17.626Z,99278.07
2019-05-25T17:33:47.027Z,99270.50
2019-05-25T17:36:15.919Z,99276.55
2019-05-25T17:38:44.827Z,99280.38
2019-05-25T17:41:13.705Z,99279.30
2019-05-25T17:43:42.664Z,99272.31
2019-05-25T17:46:11.624Z,99272.31
2019-05-25T17:48:40.504Z,99275.38
2019-05-25T17:51:09.424Z,99272.73
2019-05-25T17:53:38.345Z,99272.86
2019-05-25T17:56:07.386Z,99276.55
2019-05-25T17:58:36.284Z,99280.48
2019-05-25T18:01:06.187Z,99278.05
2019-05-25T18:03:35.383Z,99283.69
2019-05-25T18:06:05.506Z,99286.46
2019-05-25T18:08:35.115Z,99290.70
2019-05-25T18:11:04.903Z,99292.05
2019-05-25T18:13:34.275Z,99290.52
2019-05-25T18:16:03.708Z,99301.59
2019-05-25T18:18:33.546Z,99298.31
2019-05-25T18:21:03.147Z,99297.89
2019-05-25T18:23:32.829Z,99293.42
2019-05-25T18:26:02.265Z,99291.84
2019-05-25T18:28:31.946Z,99298.55
2019-05-25T18:31:01.345Z,99299.91
2019-05-25T18:33:31.145Z,99311.24
2019-05-25T18:36:00.781Z,99310.39
2019-05-25T18:38:30.385Z,99310.62
2019-05-25T18:41:00.075Z,99312.92
2019-05-25T18:43:29.586Z,99321.42
2019-05-25T18:45:59.093Z,99323.97
2019-05-25T18:48:28.585Z,99323.42
2019-05-25T18:50:58.425Z,99332.38
2019-05-25T18:53:27.905Z,99331.94
2019-05-25T18:55:57.413Z,99333.86
2019-05-25T18:58:27.320Z,99333.14
2019-05-25T19:00:57.343Z,99329.36
2019-05-25T19:03:26.864Z,99331.94
2019-05-25T19:05:56.783Z,99335.24
2019-05-25T19:08:26.363Z,99335.95
2019-05-25T19:10:55.866Z,99340.94
2019-05-25T19:13:25.386Z,99338.34
2019-05-25T19:15:54.671Z,99339.54
2019-05-25T19:18:24.306Z,99349.95
2019-05-25T19:20:54.142Z,99350.08
2019-05-25T19:23:23.707Z,99358.60
2019-05-25T19:25:53.196Z,99355.98
2019-05-25T19:28:22.833Z,99347.77
2019-05-25T19:30:52.327Z,99349.73
2019-05-25T19:33:22.026Z,99357.21
2019-05-25T19:35:54.143Z,99358.80
2019-05-25T19:38:23.185Z,99361.22
2019-05-25T19:40:52.705Z,99361.76
2019-05-25T19:43:22.185Z,99360.35
2019-05-25T19:45:51.717Z,99358.52
2019-05-25T19:48:21.427Z,99361.41
2019-05-25T19:50:50.942Z,99352.98
2019-05-25T19:53:20.425Z,99361.83
2019-05-25T19:55:50.345Z,99363.23
2019-05-25T19:58:19.745Z,99360.35
2019-05-25T20:00:49.334Z,99362.52
2019-05-25T20:03:18.866Z,99363.00
2019-05-25T20:05:48.666Z,99363.24
2019-05-25T20:08:18.430Z,99364.91
2019-05-25T20:10:48.054Z,99363.14
2019-05-25T20:13:17.664Z,99364.41
2019-05-25T20:15:47.186Z,99368.53
2019-05-25T20:18:16.705Z,99369.83
2019-05-25T20:20:46.306Z,99377.87
2019-05-25T20:23:15.704Z,99378.66
2019-05-25T20:25:45.430Z,99377.48
2019-05-25T20:28:15.013Z,99376.35
2019-05-25T20:30:44.507Z,99382.95
2019-05-25T20:33:26.398Z,99380.36
2019-05-25T20:35:45.268Z,99379.99
2019-05-25T20:38:14.546Z,99383.02
2019-05-25T20:40:44.043Z,99383.44
2019-05-25T20:43:13.465Z,99389.19
2019-05-25T20:45:42.748Z,99390.97
2019-05-25T20:48:12.396Z,99386.67
2019-05-25T20:50:41.979Z,99397.33
2019-05-25T20:53:11.504Z,99396.11
2019-05-25T20:55:40.985Z,99396.22
2019-05-25T20:58:10.376Z,99396.84
2019-05-25T21:00:39.585Z,99398.70
2019-05-25T21:03:09.505Z,99403.47
2019-05-25T21:05:49.652Z,99403.55
2019-05-25T21:08:10.263Z,99401.47
2019-05-25T21:10:39.866Z,99409.23
2019-05-25T21:13:09.346Z,99407.83
2019-05-25T21:15:39.066Z,99411.03
2019-05-25T21:18:08.469Z,99408.77
2019-05-25T21:20:38.068Z,99413.50
2019-05-25T21:23:07.705Z,99409.69
2019-05-25T21:25:37.706Z,99408.54
2019-05-25T21:28:07.224Z,99411.19
2019-05-25T21:30:36.706Z,99418.50
2019-05-25T21:33:06.226Z,99413.84
2019-05-25T21:35:35.947Z,99419.52
2019-05-25T21:38:05.544Z,99414.50
2019-05-25T21:40:35.434Z,99416.98
2019-05-25T21:43:05.339Z,99415.56
2019-05-25T21:45:34.745Z,99418.43
2019-05-25T21:48:04.650Z,99416.21
2019-05-25T21:50:34.065Z,99420.63
2019-05-25T21:53:03.462Z,99428.39
2019-05-25T21:55:33.187Z,99422.64
2019-05-25T21:58:02.906Z,99428.84
2019-05-25T22:00:33.945Z,99429.96
2019-05-25T22:03:03.525Z,99429.91
2019-05-25T22:05:33.464Z,99423.73
2019-05-25T22:08:02.847Z,99429.41
2019-05-25T22:10:32.448Z,99429.81
2019-05-25T22:13:02.265Z,99425.95
2019-05-25T22:15:31.865Z,99430.14
2019-05-25T22:18:01.385Z,99426.40
2019-05-25T22:20:30.976Z,99430.78
2019-05-25T22:23:00.507Z,99430.41
2019-05-25T22:25:30.191Z,99433.22
2019-05-25T22:27:59.825Z,99426.97
2019-05-25T22:30:29.304Z,99426.91
2019-05-25T22:32:59.026Z,99432.37
2019-05-25T22:35:28.425Z,99431.11
2019-05-25T22:37:58.016Z,99436.19
2019-05-25T22:40:27.425Z,99435.60
2019-05-25T22:42:57.144Z,99435.49
2019-05-25T22:45:26.821Z,99444.44
2019-05-25T22:47:56.552Z,99433.76
2019-05-25T22:50:26.066Z,99440.01
2019-05-25T22:52:55.666Z,99442.30
2019-05-25T22:55:25.068Z,99446.98
2019-05-25T22:57:54.586Z,99448.71
2019-05-25T23:00:24.271Z,99442.01
2019-05-25T23:02:53.785Z,99440.00
2019-05-25T23:05:23.104Z,99442.48
2019-05-25T23:07:52.585Z,99438.42
2019-05-25T23:10:22.425Z,99441.47
2019-05-25T23:12:52.145Z,99434.41
2019-05-25T23:15:22.025Z,99431.70
2019-05-25T23:17:51.625Z,99436.09
2019-05-25T23:20:21.346Z,99428.67
2019-05-25T23:22:51.065Z,99442.01
2019-05-25T23:25:20.745Z,99442.55
2019-05-25T23:27:50.385Z,99443.44
2019-05-25T23:30:20.265Z,99440.47
2019-05-25T23:32:50.070Z,99441.43
2019-05-25T23:35:20.025Z,99443.25
2019-05-25T23:37:49.706Z,99442.44
2019-05-25T23:40:19.504Z,99437.52
2019-05-25T23:42:49.025Z,99436.86
2019-05-25T23:45:18.625Z,99433.31
2019-05-25T23:47:48.234Z,99436.09
2019-05-25T23:50:18.455Z,99444.15
2019-05-25T23:52:48.278Z,99446.66
2019-05-25T23:55:18.694Z,99444.06
2019-05-25T23:57:48.186Z,99442.80
